sensor_id;sensor_type;location;lat;lon;timestamp;temperature;humidity
10905;DHT22;5505;51.450;9.254;2024-03-06T00:02:42;6.20;99.90
10905;DHT22;5505;51.450;9.254;2024-03-06T00:05:29;6.20;99.90
10905;DHT22;5505;51.450;9.254;2024-03-06T00:08:16;6.20;99.90
10905;DHT22;5505;51.450;9.254;2024-03-06T00:11:03;6.20;99.90
10905;DHT22;5505;51.450;9.254;2024-03-06T00:13:51;6.20;99.90
10905;DHT22;5505;51.450;9.254;2024-03-06T00:16:38;6.20;99.90
10905;DHT22;5505;51.450;9.254;2024-03-06T00:19:25;6.20;99.90
10905;DHT22;5505;51.450;9.254;2024-03-06T00:22:12;6.20;99.90
10905;DHT22;5505;51.450;9.254;2024-03-06T00:24:59;6.20;99.90
10905;DHT22;5505;51.450;9.254;2024-03-06T00:27:45;6.20;99.90
10905;DHT22;5505;51.450;9.254;2024-03-06T00:30:34;6.30;99.90
10905;DHT22;5505;51.450;9.254;2024-03-06T00:33:21;6.20;99.90
10905;DHT22;5505;51.450;9.254;2024-03-06T00:36:08;6.20;99.90
10905;DHT22;5505;51.450;9.254;2024-03-06T00:38:55;6.20;99.90
10905;DHT22;5505;51.450;9.254;2024-03-06T00:41:42;6.10;99.90
10905;DHT22;5505;51.450;9.254;2024-03-06T00:44:28;6.00;99.90
10905;DHT22;5505;51.450;9.254;2024-03-06T00:47:17;6.10;99.90
10905;DHT22;5505;51.450;9.254;2024-03-06T00:50:04;6.00;99.90
10905;DHT22;5505;51.450;9.254;2024-03-06T00:52:53;6.00;99.90
10905;DHT22;5505;51.450;9.254;2024-03-06T00:55:39;6.10;99.90
10905;DHT22;5505;51.450;9.254;2024-03-06T00:58:26;7.10;99.90
10905;DHT22;5505;51.450;9.254;2024-03-06T01:01:13;6.10;99.90
10905;DHT22;5505;51.450;9.254;2024-03-06T01:04:02;6.10;99.90
10905;DHT22;5505;51.450;9.254;2024-03-06T01:06:49;6.10;99.90
10905;DHT22;5505;51.450;9.254;2024-03-06T01:09:37;6.10;99.90
10905;DHT22;5505;51.450;9.254;2024-03-06T01:12:24;6.20;99.90
10905;DHT22;5505;51.450;9.254;2024-03-06T01:15:11;6.20;99.90
10905;DHT22;5505;51.450;9.254;2024-03-06T01:17:57;6.20;99.90
10905;DHT22;5505;51.450;9.254;2024-03-06T01:20:46;6.20;99.90
10905;DHT22;5505;51.450;9.254;2024-03-06T01:23:32;6.20;99.90
10905;DHT22;5505;51.450;9.254;2024-03-06T01:26:19;6.10;99.90
10905;DHT22;5505;51.450;9.254;2024-03-06T01:29:06;6.10;99.90
10905;DHT22;5505;51.450;9.254;2024-03-06T01:31:53;6.10;99.90
10905;DHT22;5505;51.450;9.254;2024-03-06T01:34:40;6.10;99.90
10905;DHT22;5505;51.450;9.254;2024-03-06T01:37:28;6.00;99.90
10905;DHT22;5505;51.450;9.254;2024-03-06T01:40:15;6.00;99.90
10905;DHT22;5505;51.450;9.254;2024-03-06T01:43:02;6.10;99.90
10905;DHT22;5505;51.450;9.254;2024-03-06T01:45:49;6.00;99.90
10905;DHT22;5505;51.450;9.254;2024-03-06T01:48:36;6.00;99.90
10905;DHT22;5505;51.450;9.254;2024-03-06T01:51:23;6.00;99.90
10905;DHT22;5505;51.450;9.254;2024-03-06T01:54:11;6.10;99.90
10905;DHT22;5505;51.450;9.254;2024-03-06T01:56:59;6.10;99.90
10905;DHT22;5505;51.450;9.254;2024-03-06T01:59:48;6.10;99.90
10905;DHT22;5505;51.450;9.254;2024-03-06T02:02:35;6.80;99.90
10905;DHT22;5505;51.450;9.254;2024-03-06T02:05:22;6.10;99.90
10905;DHT22;5505;51.450;9.254;2024-03-06T02:08:09;6.00;99.90
10905;DHT22;5505;51.450;9.254;2024-03-06T02:10:57;7.00;99.90
10905;DHT22;5505;51.450;9.254;2024-03-06T02:13:45;6.00;99.90
10905;DHT22;5505;51.450;9.254;2024-03-06T02:16:32;6.00;99.90
10905;DHT22;5505;51.450;9.254;2024-03-06T02:19:19;5.90;99.90
10905;DHT22;5505;51.450;9.254;2024-03-06T02:22:08;5.90;99.90
10905;DHT22;5505;51.450;9.254;2024-03-06T02:24:55;5.90;99.90
10905;DHT22;5505;51.450;9.254;2024-03-06T02:27:41;6.00;99.90
10905;DHT22;5505;51.450;9.254;2024-03-06T02:30:28;6.00;99.90
10905;DHT22;5505;51.450;9.254;2024-03-06T02:33:16;6.00;99.90
10905;DHT22;5505;51.450;9.254;2024-03-06T02:36:03;7.90;99.90
10905;DHT22;5505;51.450;9.254;2024-03-06T02:38:52;5.90;99.90
10905;DHT22;5505;51.450;9.254;2024-03-06T02:41:39;5.80;99.90
10905;DHT22;5505;51.450;9.254;2024-03-06T02:44:26;5.80;99.90
10905;DHT22;5505;51.450;9.254;2024-03-06T02:47:13;5.80;99.90
10905;DHT22;5505;51.450;9.254;2024-03-06T02:49:59;5.80;99.90
10905;DHT22;5505;51.450;9.254;2024-03-06T02:52:46;5.80;99.90
10905;DHT22;5505;51.450;9.254;2024-03-06T02:55:34;5.80;99.90
10905;DHT22;5505;51.450;9.254;2024-03-06T02:58:21;5.80;99.90
10905;DHT22;5505;51.450;9.254;2024-03-06T03:01:08;5.80;99.90
10905;DHT22;5505;51.450;9.254;2024-03-06T03:03:55;5.80;99.90
10905;DHT22;5505;51.450;9.254;2024-03-06T03:06:42;6.20;99.90
10905;DHT22;5505;51.450;9.254;2024-03-06T03:09:29;5.70;99.90
10905;DHT22;5505;51.450;9.254;2024-03-06T03:12:17;5.70;99.90
10905;DHT22;5505;51.450;9.254;2024-03-06T03:15:05;7.20;99.90
10905;DHT22;5505;51.450;9.254;2024-03-06T03:17:52;5.70;99.90
10905;DHT22;5505;51.450;9.254;2024-03-06T03:20:39;5.70;99.90
10905;DHT22;5505;51.450;9.254;2024-03-06T03:23:25;5.70;99.90
10905;DHT22;5505;51.450;9.254;2024-03-06T03:26:13;5.80;99.90
10905;DHT22;5505;51.450;9.254;2024-03-06T03:29:01;5.80;99.90
10905;DHT22;5505;51.450;9.254;2024-03-06T03:31:48;5.80;99.90
10905;DHT22;5505;51.450;9.254;2024-03-06T03:34:35;5.80;99.90
10905;DHT22;5505;51.450;9.254;2024-03-06T03:37:22;5.80;99.90
10905;DHT22;5505;51.450;9.254;2024-03-06T03:40:09;5.80;99.90
10905;DHT22;5505;51.450;9.254;2024-03-06T03:42:56;5.80;99.90
10905;DHT22;5505;51.450;9.254;2024-03-06T03:45:45;5.80;99.90
10905;DHT22;5505;51.450;9.254;2024-03-06T03:48:32;5.80;99.90
10905;DHT22;5505;51.450;9.254;2024-03-06T03:51:21;6.40;99.90
10905;DHT22;5505;51.450;9.254;2024-03-06T03:54:07;5.80;99.90
10905;DHT22;5505;51.450;9.254;2024-03-06T03:56:54;5.80;99.90
10905;DHT22;5505;51.450;9.254;2024-03-06T03:59:41;5.80;99.90
10905;DHT22;5505;51.450;9.254;2024-03-06T04:02:29;5.80;99.90
10905;DHT22;5505;51.450;9.254;2024-03-06T04:05:16;5.80;99.90
10905;DHT22;5505;51.450;9.254;2024-03-06T04:08:03;5.70;99.90
10905;DHT22;5505;51.450;9.254;2024-03-06T04:10:51;5.70;99.90
10905;DHT22;5505;51.450;9.254;2024-03-06T04:13:38;5.70;99.90
10905;DHT22;5505;51.450;9.254;2024-03-06T04:16:25;5.70;99.90
10905;DHT22;5505;51.450;9.254;2024-03-06T04:19:14;5.60;99.90
10905;DHT22;5505;51.450;9.254;2024-03-06T04:22:00;5.60;99.90
10905;DHT22;5505;51.450;9.254;2024-03-06T04:24:48;5.50;99.90
10905;DHT22;5505;51.450;9.254;2024-03-06T04:27:34;5.50;99.90
10905;DHT22;5505;51.450;9.254;2024-03-06T04:30:21;5.50;99.90
10905;DHT22;5505;51.450;9.254;2024-03-06T04:33:08;5.50;99.90
10905;DHT22;5505;51.450;9.254;2024-03-06T04:36:02;5.50;99.90
10905;DHT22;5505;51.450;9.254;2024-03-06T04:38:48;5.50;99.90
10905;DHT22;5505;51.450;9.254;2024-03-06T04:41:35;5.50;99.90
10905;DHT22;5505;51.450;9.254;2024-03-06T04:44:22;5.50;99.90
10905;DHT22;5505;51.450;9.254;2024-03-06T04:47:09;5.40;99.90
10905;DHT22;5505;51.450;9.254;2024-03-06T04:49:55;5.40;99.90
10905;DHT22;5505;51.450;9.254;2024-03-06T04:52:44;5.40;99.90
10905;DHT22;5505;51.450;9.254;2024-03-06T04:55:31;5.30;99.90
10905;DHT22;5505;51.450;9.254;2024-03-06T04:58:18;5.30;99.90
10905;DHT22;5505;51.450;9.254;2024-03-06T05:01:05;5.30;99.90
10905;DHT22;5505;51.450;9.254;2024-03-06T05:03:52;5.30;99.90
10905;DHT22;5505;51.450;9.254;2024-03-06T05:06:39;5.20;99.90
10905;DHT22;5505;51.450;9.254;2024-03-06T05:09:27;5.20;99.90
10905;DHT22;5505;51.450;9.254;2024-03-06T05:12:14;5.20;99.90
10905;DHT22;5505;51.450;9.254;2024-03-06T05:15:01;5.20;99.90
10905;DHT22;5505;51.450;9.254;2024-03-06T05:17:48;5.30;99.90
10905;DHT22;5505;51.450;9.254;2024-03-06T05:20:34;5.20;99.90
10905;DHT22;5505;51.450;9.254;2024-03-06T05:23:21;5.20;99.90
10905;DHT22;5505;51.450;9.254;2024-03-06T05:26:10;5.20;99.90
10905;DHT22;5505;51.450;9.254;2024-03-06T05:28:56;5.20;99.90
10905;DHT22;5505;51.450;9.254;2024-03-06T05:31:43;5.20;99.90
10905;DHT22;5505;51.450;9.254;2024-03-06T05:34:30;5.20;99.90
10905;DHT22;5505;51.450;9.254;2024-03-06T05:37:17;5.20;99.90
10905;DHT22;5505;51.450;9.254;2024-03-06T05:40:05;5.20;99.90
10905;DHT22;5505;51.450;9.254;2024-03-06T05:42:54;5.20;99.90
10905;DHT22;5505;51.450;9.254;2024-03-06T05:45:41;5.20;99.90
10905;DHT22;5505;51.450;9.254;2024-03-06T05:48:28;5.20;99.90
10905;DHT22;5505;51.450;9.254;2024-03-06T05:51:15;6.20;99.90
10905;DHT22;5505;51.450;9.254;2024-03-06T05:54:02;5.20;99.90
10905;DHT22;5505;51.450;9.254;2024-03-06T05:56:50;5.20;99.90
10905;DHT22;5505;51.450;9.254;2024-03-06T05:59:38;5.20;99.90
10905;DHT22;5505;51.450;9.254;2024-03-06T06:02:25;5.20;99.90
10905;DHT22;5505;51.450;9.254;2024-03-06T06:05:13;5.20;99.90
10905;DHT22;5505;51.450;9.254;2024-03-06T06:08:00;5.20;99.90
10905;DHT22;5505;51.450;9.254;2024-03-06T06:10:47;6.50;99.90
10905;DHT22;5505;51.450;9.254;2024-03-06T06:13:33;5.20;99.90
10905;DHT22;5505;51.450;9.254;2024-03-06T06:16:22;5.20;99.90
10905;DHT22;5505;51.450;9.254;2024-03-06T06:19:08;5.20;99.90
10905;DHT22;5505;51.450;9.254;2024-03-06T06:21:55;5.30;99.90
10905;DHT22;5505;51.450;9.254;2024-03-06T06:24:42;5.30;99.90
10905;DHT22;5505;51.450;9.254;2024-03-06T06:27:29;5.20;99.90
10905;DHT22;5505;51.450;9.254;2024-03-06T06:30:16;5.20;99.90
10905;DHT22;5505;51.450;9.254;2024-03-06T06:33:04;5.20;99.90
10905;DHT22;5505;51.450;9.254;2024-03-06T06:35:51;7.10;99.90
10905;DHT22;5505;51.450;9.254;2024-03-06T06:38:39;6.70;99.90
10905;DHT22;5505;51.450;9.254;2024-03-06T06:41:26;5.20;99.90
10905;DHT22;5505;51.450;9.254;2024-03-06T06:44:13;5.20;99.90
10905;DHT22;5505;51.450;9.254;2024-03-06T06:47:00;5.20;99.90
10905;DHT22;5505;51.450;9.254;2024-03-06T06:49:48;5.10;99.90
10905;DHT22;5505;51.450;9.254;2024-03-06T06:52:35;5.10;99.90
10905;DHT22;5505;51.450;9.254;2024-03-06T06:55:22;5.10;99.90
10905;DHT22;5505;51.450;9.254;2024-03-06T06:58:10;5.10;99.90
10905;DHT22;5505;51.450;9.254;2024-03-06T07:00:56;5.10;99.90
10905;DHT22;5505;51.450;9.254;2024-03-06T07:03:44;6.00;99.90
10905;DHT22;5505;51.450;9.254;2024-03-06T07:06:33;5.10;99.90
10905;DHT22;5505;51.450;9.254;2024-03-06T07:09:20;5.30;99.90
10905;DHT22;5505;51.450;9.254;2024-03-06T07:12:07;5.30;99.90
10905;DHT22;5505;51.450;9.254;2024-03-06T07:14:54;5.30;99.90
10905;DHT22;5505;51.450;9.254;2024-03-06T07:17:42;5.20;99.90
10905;DHT22;5505;51.450;9.254;2024-03-06T07:20:29;5.20;99.90
10905;DHT22;5505;51.450;9.254;2024-03-06T07:23:18;7.60;99.90
10905;DHT22;5505;51.450;9.254;2024-03-06T07:26:05;5.30;99.90
10905;DHT22;5505;51.450;9.254;2024-03-06T07:28:52;5.30;99.90
10905;DHT22;5505;51.450;9.254;2024-03-06T07:31:38;5.30;99.90
10905;DHT22;5505;51.450;9.254;2024-03-06T07:34:25;6.10;99.90
10905;DHT22;5505;51.450;9.254;2024-03-06T07:37:12;5.20;99.90
10905;DHT22;5505;51.450;9.254;2024-03-06T07:40:01;5.20;99.90
10905;DHT22;5505;51.450;9.254;2024-03-06T07:42:50;5.20;99.90
10905;DHT22;5505;51.450;9.254;2024-03-06T07:45:37;5.20;99.90
10905;DHT22;5505;51.450;9.254;2024-03-06T07:48:25;5.20;99.90
10905;DHT22;5505;51.450;9.254;2024-03-06T07:51:12;5.30;99.90
10905;DHT22;5505;51.450;9.254;2024-03-06T07:53:59;5.30;99.90
10905;DHT22;5505;51.450;9.254;2024-03-06T07:56:47;5.30;99.90
10905;DHT22;5505;51.450;9.254;2024-03-06T07:59:34;5.20;99.90
10905;DHT22;5505;51.450;9.254;2024-03-06T08:02:21;5.20;99.90
10905;DHT22;5505;51.450;9.254;2024-03-06T08:05:08;5.20;99.90
10905;DHT22;5505;51.450;9.254;2024-03-06T08:07:57;5.30;99.90
10905;DHT22;5505;51.450;9.254;2024-03-06T08:10:44;5.30;99.90
10905;DHT22;5505;51.450;9.254;2024-03-06T08:13:33;6.40;99.90
10905;DHT22;5505;51.450;9.254;2024-03-06T08:16:19;6.20;99.90
10905;DHT22;5505;51.450;9.254;2024-03-06T08:19:06;3.80;99.90
10905;DHT22;5505;51.450;9.254;2024-03-06T08:21:53;5.50;99.90
10905;DHT22;5505;51.450;9.254;2024-03-06T08:24:40;5.60;99.90
10905;DHT22;5505;51.450;9.254;2024-03-06T08:27:27;5.50;99.90
10905;DHT22;5505;51.450;9.254;2024-03-06T08:30:15;5.60;99.90
10905;DHT22;5505;51.450;9.254;2024-03-06T08:33:02;5.50;99.90
10905;DHT22;5505;51.450;9.254;2024-03-06T08:35:49;5.60;99.90
10905;DHT22;5505;51.450;9.254;2024-03-06T08:38:36;5.70;99.90
10905;DHT22;5505;51.450;9.254;2024-03-06T08:41:23;7.10;99.90
10905;DHT22;5505;51.450;9.254;2024-03-06T08:44:10;5.70;99.90
10905;DHT22;5505;51.450;9.254;2024-03-06T08:46:58;5.70;99.90
10905;DHT22;5505;51.450;9.254;2024-03-06T08:49:45;7.00;99.90
10905;DHT22;5505;51.450;9.254;2024-03-06T08:52:32;5.70;99.90
10905;DHT22;5505;51.450;9.254;2024-03-06T08:55:20;5.70;99.90
10905;DHT22;5505;51.450;9.254;2024-03-06T08:58:06;5.80;99.90
10905;DHT22;5505;51.450;9.254;2024-03-06T09:00:54;5.90;99.90
10905;DHT22;5505;51.450;9.254;2024-03-06T09:03:42;7.60;99.90
10905;DHT22;5505;51.450;9.254;2024-03-06T09:06:29;6.00;99.90
10905;DHT22;5505;51.450;9.254;2024-03-06T09:09:16;6.00;99.90
10905;DHT22;5505;51.450;9.254;2024-03-06T09:12:04;6.00;99.90
10905;DHT22;5505;51.450;9.254;2024-03-06T09:14:51;6.00;99.90
10905;DHT22;5505;51.450;9.254;2024-03-06T09:17:38;6.20;99.90
10905;DHT22;5505;51.450;9.254;2024-03-06T09:20:26;6.00;99.90
10905;DHT22;5505;51.450;9.254;2024-03-06T09:23:13;5.90;99.90
10905;DHT22;5505;51.450;9.254;2024-03-06T09:26:00;6.00;99.90
10905;DHT22;5505;51.450;9.254;2024-03-06T09:28:47;6.00;99.90
10905;DHT22;5505;51.450;9.254;2024-03-06T09:31:35;6.10;99.90
10905;DHT22;5505;51.450;9.254;2024-03-06T09:34:22;6.10;99.90
10905;DHT22;5505;51.450;9.254;2024-03-06T09:37:10;6.60;99.90
10905;DHT22;5505;51.450;9.254;2024-03-06T09:39:57;6.10;99.90
10905;DHT22;5505;51.450;9.254;2024-03-06T09:42:44;6.20;99.90
10905;DHT22;5505;51.450;9.254;2024-03-06T09:45:31;6.20;99.90
10905;DHT22;5505;51.450;9.254;2024-03-06T09:48:19;6.20;99.90
10905;DHT22;5505;51.450;9.254;2024-03-06T09:51:07;6.30;99.90
10905;DHT22;5505;51.450;9.254;2024-03-06T09:53:55;6.40;99.90
10905;DHT22;5505;51.450;9.254;2024-03-06T09:56:43;6.40;99.90
10905;DHT22;5505;51.450;9.254;2024-03-06T09:59:30;6.30;99.90
10905;DHT22;5505;51.450;9.254;2024-03-06T10:02:24;6.30;99.90
10905;DHT22;5505;51.450;9.254;2024-03-06T10:05:21;6.30;99.90
10905;DHT22;5505;51.450;9.254;2024-03-06T10:08:08;7.90;99.90
10905;DHT22;5505;51.450;9.254;2024-03-06T10:10:56;6.40;99.90
10905;DHT22;5505;51.450;9.254;2024-03-06T10:13:43;6.40;99.90
10905;DHT22;5505;51.450;9.254;2024-03-06T10:16:30;6.40;99.90
10905;DHT22;5505;51.450;9.254;2024-03-06T10:19:17;6.50;99.90
10905;DHT22;5505;51.450;9.254;2024-03-06T10:22:06;6.50;99.90
10905;DHT22;5505;51.450;9.254;2024-03-06T10:24:55;6.40;99.90
10905;DHT22;5505;51.450;9.254;2024-03-06T10:27:43;6.50;99.90
10905;DHT22;5505;51.450;9.254;2024-03-06T10:30:30;6.60;99.90
10905;DHT22;5505;51.450;9.254;2024-03-06T10:33:18;6.70;99.90
10905;DHT22;5505;51.450;9.254;2024-03-06T10:36:06;6.80;99.90
10905;DHT22;5505;51.450;9.254;2024-03-06T10:38:58;6.90;99.90
10905;DHT22;5505;51.450;9.254;2024-03-06T10:41:46;7.00;99.90
10905;DHT22;5505;51.450;9.254;2024-03-06T10:44:43;8.40;99.90
10905;DHT22;5505;51.450;9.254;2024-03-06T10:47:31;7.20;99.90
10905;DHT22;5505;51.450;9.254;2024-03-06T10:50:19;7.20;99.90
10905;DHT22;5505;51.450;9.254;2024-03-06T10:53:08;7.20;99.90
10905;DHT22;5505;51.450;9.254;2024-03-06T10:55:57;7.30;99.90
10905;DHT22;5505;51.450;9.254;2024-03-06T10:58:45;7.40;99.90
10905;DHT22;5505;51.450;9.254;2024-03-06T11:01:35;7.50;99.90
10905;DHT22;5505;51.450;9.254;2024-03-06T11:04:24;7.60;99.90
10905;DHT22;5505;51.450;9.254;2024-03-06T11:07:14;7.60;99.90
10905;DHT22;5505;51.450;9.254;2024-03-06T11:10:01;7.60;99.90
10905;DHT22;5505;51.450;9.254;2024-03-06T11:12:48;7.50;99.90
10905;DHT22;5505;51.450;9.254;2024-03-06T11:15:35;7.40;99.90
10905;DHT22;5505;51.450;9.254;2024-03-06T11:18:43;7.40;99.90
10905;DHT22;5505;51.450;9.254;2024-03-06T11:21:31;7.50;99.90
10905;DHT22;5505;51.450;9.254;2024-03-06T11:24:20;7.30;99.90
10905;DHT22;5505;51.450;9.254;2024-03-06T11:27:07;7.30;99.90
10905;DHT22;5505;51.450;9.254;2024-03-06T11:30:07;7.20;99.90
10905;DHT22;5505;51.450;9.254;2024-03-06T11:33:00;7.20;99.90
10905;DHT22;5505;51.450;9.254;2024-03-06T11:36:14;7.10;99.90
10905;DHT22;5505;51.450;9.254;2024-03-06T11:39:03;7.20;99.90
10905;DHT22;5505;51.450;9.254;2024-03-06T11:41:51;7.20;99.90
10905;DHT22;5505;51.450;9.254;2024-03-06T11:44:52;7.20;99.90
10905;DHT22;5505;51.450;9.254;2024-03-06T11:47:55;7.30;99.90
10905;DHT22;5505;51.450;9.254;2024-03-06T11:50:43;7.30;99.90
10905;DHT22;5505;51.450;9.254;2024-03-06T11:53:34;7.40;99.90
10905;DHT22;5505;51.450;9.254;2024-03-06T11:56:21;7.30;99.90
10905;DHT22;5505;51.450;9.254;2024-03-06T11:59:08;9.00;99.90
10905;DHT22;5505;51.450;9.254;2024-03-06T12:01:57;7.40;99.90
10905;DHT22;5505;51.450;9.254;2024-03-06T12:04:47;7.50;99.90
10905;DHT22;5505;51.450;9.254;2024-03-06T12:07:45;7.60;99.90
10905;DHT22;5505;51.450;9.254;2024-03-06T12:10:36;7.60;99.90
10905;DHT22;5505;51.450;9.254;2024-03-06T12:13:23;7.60;99.90
10905;DHT22;5505;51.450;9.254;2024-03-06T12:16:11;7.60;99.90
10905;DHT22;5505;51.450;9.254;2024-03-06T12:18:58;7.70;99.90
10905;DHT22;5505;51.450;9.254;2024-03-06T12:21:47;7.80;99.90
10905;DHT22;5505;51.450;9.254;2024-03-06T12:24:34;7.70;99.90
10905;DHT22;5505;51.450;9.254;2024-03-06T12:27:23;7.70;99.90
10905;DHT22;5505;51.450;9.254;2024-03-06T12:30:11;7.70;99.90
10905;DHT22;5505;51.450;9.254;2024-03-06T12:32:58;7.70;99.90
10905;DHT22;5505;51.450;9.254;2024-03-06T12:36:03;7.80;99.90
10905;DHT22;5505;51.450;9.254;2024-03-06T12:38:54;7.70;99.90
10905;DHT22;5505;51.450;9.254;2024-03-06T12:41:41;7.80;99.90
10905;DHT22;5505;51.450;9.254;2024-03-06T12:44:29;7.80;99.90
10905;DHT22;5505;51.450;9.254;2024-03-06T12:47:16;7.80;99.90
10905;DHT22;5505;51.450;9.254;2024-03-06T12:50:04;8.20;99.90
10905;DHT22;5505;51.450;9.254;2024-03-06T12:52:53;7.70;99.90
10905;DHT22;5505;51.450;9.254;2024-03-06T12:55:40;8.80;99.90
10905;DHT22;5505;51.450;9.254;2024-03-06T12:58:30;7.60;99.90
10905;DHT22;5505;51.450;9.254;2024-03-06T13:01:18;7.60;99.90
10905;DHT22;5505;51.450;9.254;2024-03-06T13:04:05;7.80;99.90
10905;DHT22;5505;51.450;9.254;2024-03-06T13:06:53;7.80;99.90
10905;DHT22;5505;51.450;9.254;2024-03-06T13:09:40;7.70;99.90
10905;DHT22;5505;51.450;9.254;2024-03-06T13:12:27;7.60;99.90
10905;DHT22;5505;51.450;9.254;2024-03-06T13:15:13;7.60;99.90
10905;DHT22;5505;51.450;9.254;2024-03-06T13:18:02;7.60;99.90
10905;DHT22;5505;51.450;9.254;2024-03-06T13:20:49;7.60;99.90
10905;DHT22;5505;51.450;9.254;2024-03-06T13:23:36;7.60;99.90
10905;DHT22;5505;51.450;9.254;2024-03-06T13:26:23;7.70;99.90
10905;DHT22;5505;51.450;9.254;2024-03-06T13:29:10;7.70;99.90
10905;DHT22;5505;51.450;9.254;2024-03-06T13:31:57;7.90;99.90
10905;DHT22;5505;51.450;9.254;2024-03-06T13:34:45;7.80;99.90
10905;DHT22;5505;51.450;9.254;2024-03-06T13:37:32;7.80;99.90
10905;DHT22;5505;51.450;9.254;2024-03-06T13:40:20;7.90;99.90
10905;DHT22;5505;51.450;9.254;2024-03-06T13:43:06;8.70;99.90
10905;DHT22;5505;51.450;9.254;2024-03-06T13:45:54;7.70;99.90
10905;DHT22;5505;51.450;9.254;2024-03-06T13:48:41;7.70;99.90
10905;DHT22;5505;51.450;9.254;2024-03-06T13:51:29;7.70;99.90
10905;DHT22;5505;51.450;9.254;2024-03-06T13:54:16;7.70;99.90
10905;DHT22;5505;51.450;9.254;2024-03-06T13:57:03;7.70;99.90
10905;DHT22;5505;51.450;9.254;2024-03-06T13:59:50;7.70;99.90
10905;DHT22;5505;51.450;9.254;2024-03-06T14:02:37;7.80;99.90
10905;DHT22;5505;51.450;9.254;2024-03-06T14:05:23;8.00;99.90
10905;DHT22;5505;51.450;9.254;2024-03-06T14:08:13;8.10;99.90
10905;DHT22;5505;51.450;9.254;2024-03-06T14:11:01;8.10;99.90
10905;DHT22;5505;51.450;9.254;2024-03-06T14:13:50;8.10;99.90
10905;DHT22;5505;51.450;9.254;2024-03-06T14:16:39;8.20;99.90
10905;DHT22;5505;51.450;9.254;2024-03-06T14:19:26;8.30;99.90
10905;DHT22;5505;51.450;9.254;2024-03-06T14:22:13;8.30;99.90
10905;DHT22;5505;51.450;9.254;2024-03-06T14:25:04;8.40;99.90
10905;DHT22;5505;51.450;9.254;2024-03-06T14:27:51;8.40;99.90
10905;DHT22;5505;51.450;9.254;2024-03-06T14:30:37;8.30;99.90
10905;DHT22;5505;51.450;9.254;2024-03-06T14:33:24;8.30;99.90
10905;DHT22;5505;51.450;9.254;2024-03-06T14:36:12;8.20;99.90
10905;DHT22;5505;51.450;9.254;2024-03-06T14:38:59;8.10;99.90
10905;DHT22;5505;51.450;9.254;2024-03-06T14:41:48;8.00;99.90
10905;DHT22;5505;51.450;9.254;2024-03-06T14:44:34;8.00;99.90
10905;DHT22;5505;51.450;9.254;2024-03-06T14:47:21;8.00;99.90
10905;DHT22;5505;51.450;9.254;2024-03-06T14:50:08;8.10;99.90
10905;DHT22;5505;51.450;9.254;2024-03-06T14:52:55;8.20;99.90
10905;DHT22;5505;51.450;9.254;2024-03-06T14:55:42;8.10;99.90
10905;DHT22;5505;51.450;9.254;2024-03-06T14:58:30;8.20;99.90
10905;DHT22;5505;51.450;9.254;2024-03-06T15:01:17;8.60;99.90
10905;DHT22;5505;51.450;9.254;2024-03-06T15:04:04;8.20;99.90
10905;DHT22;5505;51.450;9.254;2024-03-06T15:06:51;8.40;99.90
10905;DHT22;5505;51.450;9.254;2024-03-06T15:09:38;8.20;99.90
10905;DHT22;5505;51.450;9.254;2024-03-06T15:12:25;8.20;99.90
10905;DHT22;5505;51.450;9.254;2024-03-06T15:15:13;8.20;99.90
10905;DHT22;5505;51.450;9.254;2024-03-06T15:18:00;8.20;99.90
10905;DHT22;5505;51.450;9.254;2024-03-06T15:20:46;8.20;99.90
10905;DHT22;5505;51.450;9.254;2024-03-06T15:23:33;8.20;99.90
10905;DHT22;5505;51.450;9.254;2024-03-06T15:26:21;8.20;99.90
10905;DHT22;5505;51.450;9.254;2024-03-06T15:29:07;8.10;99.90
10905;DHT22;5505;51.450;9.254;2024-03-06T15:31:56;8.10;99.90
10905;DHT22;5505;51.450;9.254;2024-03-06T15:34:45;8.10;99.90
10905;DHT22;5505;51.450;9.254;2024-03-06T15:37:32;8.30;99.90
10905;DHT22;5505;51.450;9.254;2024-03-06T15:40:19;8.20;99.90
10905;DHT22;5505;51.450;9.254;2024-03-06T15:43:05;8.20;99.90
10905;DHT22;5505;51.450;9.254;2024-03-06T15:45:52;8.10;99.90
10905;DHT22;5505;51.450;9.254;2024-03-06T15:48:41;8.00;99.90
10905;DHT22;5505;51.450;9.254;2024-03-06T15:51:28;8.00;99.90
10905;DHT22;5505;51.450;9.254;2024-03-06T15:54:15;7.90;99.90
10905;DHT22;5505;51.450;9.254;2024-03-06T15:57:02;7.80;99.90
10905;DHT22;5505;51.450;9.254;2024-03-06T15:59:49;7.80;99.90
10905;DHT22;5505;51.450;9.254;2024-03-06T16:02:36;7.80;99.90
10905;DHT22;5505;51.450;9.254;2024-03-06T16:05:25;7.90;99.90
10905;DHT22;5505;51.450;9.254;2024-03-06T16:08:12;8.70;99.90
10905;DHT22;5505;51.450;9.254;2024-03-06T16:10:58;7.90;99.90
10905;DHT22;5505;51.450;9.254;2024-03-06T16:13:47;7.90;99.90
10905;DHT22;5505;51.450;9.254;2024-03-06T16:16:33;7.90;99.90
10905;DHT22;5505;51.450;9.254;2024-03-06T16:19:20;7.80;99.90
10905;DHT22;5505;51.450;9.254;2024-03-06T16:22:10;7.90;99.90
10905;DHT22;5505;51.450;9.254;2024-03-06T16:24:56;7.80;99.90
10905;DHT22;5505;51.450;9.254;2024-03-06T16:27:43;7.90;99.90
10905;DHT22;5505;51.450;9.254;2024-03-06T16:30:30;7.70;99.90
10905;DHT22;5505;51.450;9.254;2024-03-06T16:33:17;8.50;99.90
10905;DHT22;5505;51.450;9.254;2024-03-06T16:36:04;7.60;99.90
10905;DHT22;5505;51.450;9.254;2024-03-06T16:38:52;7.70;99.90
10905;DHT22;5505;51.450;9.254;2024-03-06T16:41:40;7.80;99.90
10905;DHT22;5505;51.450;9.254;2024-03-06T16:44:27;7.70;99.90
10905;DHT22;5505;51.450;9.254;2024-03-06T16:47:15;7.70;99.90
10905;DHT22;5505;51.450;9.254;2024-03-06T16:50:03;7.60;99.90
10905;DHT22;5505;51.450;9.254;2024-03-06T16:52:49;7.70;99.90
10905;DHT22;5505;51.450;9.254;2024-03-06T16:55:38;7.70;99.90
10905;DHT22;5505;51.450;9.254;2024-03-06T16:58:24;7.60;99.90
10905;DHT22;5505;51.450;9.254;2024-03-06T17:01:11;7.60;99.90
10905;DHT22;5505;51.450;9.254;2024-03-06T17:03:58;8.50;99.90
10905;DHT22;5505;51.450;9.254;2024-03-06T17:06:45;7.60;99.90
10905;DHT22;5505;51.450;9.254;2024-03-06T17:09:32;7.60;99.90
10905;DHT22;5505;51.450;9.254;2024-03-06T17:12:20;7.80;99.90
10905;DHT22;5505;51.450;9.254;2024-03-06T17:15:08;7.60;99.90
10905;DHT22;5505;51.450;9.254;2024-03-06T17:17:55;7.60;99.90
10905;DHT22;5505;51.450;9.254;2024-03-06T17:20:41;7.50;99.90
10905;DHT22;5505;51.450;9.254;2024-03-06T17:23:28;7.50;99.90
10905;DHT22;5505;51.450;9.254;2024-03-06T17:26:15;7.50;99.90
10905;DHT22;5505;51.450;9.254;2024-03-06T17:29:04;7.50;99.90
10905;DHT22;5505;51.450;9.254;2024-03-06T17:31:51;7.40;99.90
10905;DHT22;5505;51.450;9.254;2024-03-06T17:34:38;7.40;99.90
10905;DHT22;5505;51.450;9.254;2024-03-06T17:37:25;7.50;99.90
10905;DHT22;5505;51.450;9.254;2024-03-06T17:40:12;7.50;99.90
10905;DHT22;5505;51.450;9.254;2024-03-06T17:42:59;7.50;99.90
10905;DHT22;5505;51.450;9.254;2024-03-06T17:45:47;7.50;99.90
10905;DHT22;5505;51.450;9.254;2024-03-06T17:48:34;7.50;99.90
10905;DHT22;5505;51.450;9.254;2024-03-06T17:51:27;7.40;99.90
10905;DHT22;5505;51.450;9.254;2024-03-06T17:54:14;7.40;99.90
10905;DHT22;5505;51.450;9.254;2024-03-06T17:57:02;7.30;99.90
10905;DHT22;5505;51.450;9.254;2024-03-06T17:59:49;7.30;99.90
10905;DHT22;5505;51.450;9.254;2024-03-06T18:02:38;8.80;99.90
10905;DHT22;5505;51.450;9.254;2024-03-06T18:05:25;7.20;99.90
10905;DHT22;5505;51.450;9.254;2024-03-06T18:08:11;7.20;99.90
10905;DHT22;5505;51.450;9.254;2024-03-06T18:10:59;8.10;99.90
10905;DHT22;5505;51.450;9.254;2024-03-06T18:13:46;7.10;99.90
10905;DHT22;5505;51.450;9.254;2024-03-06T18:16:33;7.10;99.90